Time;durP1;ratioP1;P1;durP2;ratioP2;P2;SDS_P1;SDS_P2;PMS_P1;PMS_P2;Temp;Humidity;BMP_temperature;BMP_pressure;BME280_temperature;BME280_humidity;BME280_pressure;Samples;Min_cycle;Max_cycle;Signal;HPM_P1;HPM_P2
2023/08/13 00:01:10;;;;;;;7.27;6.70;;;;;;;16.76;85.89;101392.75;4827158;29;20327;-71
2023/08/13 00:03:37;;;;;;;7.03;6.50;;;;;;;16.73;86.04;101394.97;4827082;29;20687;-71
2023/08/13 00:06:04;;;;;;;7.77;7.10;;;;;;;16.69;86.14;101397.19;4827598;29;20195;-71
2023/08/13 00:08:30;;;;;;;7.93;7.47;;;;;;;16.66;85.84;101394.84;4826987;29;20252;-71
2023/08/13 00:10:56;;;;;;;7.90;7.43;;;;;;;16.65;86.30;101401.25;4827514;29;20273;-71
2023/08/13 00:13:23;;;;;;;8.73;7.70;;;;;;;16.63;86.41;101391.66;4827204;29;20251;-71
2023/08/13 00:15:49;;;;;;;6.83;6.47;;;;;;;16.62;86.50;101392.69;4827345;29;20251;-71
2023/08/13 00:18:16;;;;;;;6.93;6.43;;;;;;;16.62;86.56;101400.78;4826805;29;20215;-71
2023/08/13 00:20:42;;;;;;;6.77;6.57;;;;;;;16.64;86.55;101396.88;4826836;29;20239;-71
2023/08/13 00:23:09;;;;;;;6.67;6.47;;;;;;;16.64;86.64;101401.44;4826803;29;20267;-71
2023/08/13 00:25:35;;;;;;;6.43;6.13;;;;;;;16.62;86.43;101396.22;4827008;29;20210;-71
2023/08/13 00:28:01;;;;;;;7.40;6.80;;;;;;;16.60;86.40;101405.50;4826686;29;20269;-71
2023/08/13 00:30:28;;;;;;;7.20;6.90;;;;;;;16.60;86.87;101397.38;4826689;29;20668;-71
2023/08/13 00:32:54;;;;;;;7.30;6.53;;;;;;;16.59;87.58;101404.66;4826652;29;20203;-71
2023/08/13 00:35:21;;;;;;;7.53;6.97;;;;;;;16.57;86.73;101400.41;4826826;29;20199;-71
2023/08/13 00:37:47;;;;;;;9.23;8.37;;;;;;;16.54;86.63;101403.47;4826684;29;20224;-71
2023/08/13 00:40:14;;;;;;;8.83;7.47;;;;;;;16.53;86.93;101405.31;4826639;29;20199;-71
2023/08/13 00:42:41;;;;;;;7.60;6.70;;;;;;;16.50;87.02;101405.69;4826437;29;20199;-71
2023/08/13 00:45:08;;;;;;;7.13;6.70;;;;;;;16.50;87.12;101412.94;4826976;29;20222;-71
2023/08/13 00:47:34;;;;;;;6.60;6.30;;;;;;;16.48;86.95;101414.94;4825377;29;20585;-71
2023/08/13 00:50:04;;;;;;;7.90;6.77;;;;;;;16.46;86.95;101415.97;4825139;29;20203;-71
2023/08/13 00:52:31;;;;;;;8.33;7.47;;;;;;;16.43;87.11;101413.63;4826338;29;20247;-71
2023/08/13 00:54:58;;;;;;;10.37;6.33;;;;;;;16.39;87.30;101414.97;4825078;29;20206;-71
2023/08/13 00:57:24;;;;;;;7.63;6.87;;;;;;;16.40;87.20;101413.97;4826362;29;20315;-72
2023/08/13 00:59:51;;;;;;;6.77;6.47;;;;;;;16.40;87.20;101421.22;4825015;29;20207;-72
2023/08/13 01:02:19;;;;;;;9.10;6.33;;;;;;;16.41;87.28;101420.22;4826705;29;20252;-72
2023/08/13 01:04:46;;;;;;;7.13;6.60;;;;;;;16.42;87.34;101414.63;4826142;29;20203;-72
2023/08/13 01:07:26;;;;;;;7.77;6.97;;;;;;;16.41;86.91;101421.06;4826138;29;20211;-71
2023/08/13 01:10:14;;;;;;;9.50;6.70;;;;;;;16.38;87.12;101415.13;4824876;29;20203;-71
2023/08/13 01:13:14;;;;;;;8.03;7.30;;;;;;;16.32;87.29;101419.38;4826346;29;20248;-71
2023/08/13 01:15:43;;;;;;;7.10;6.70;;;;;;;16.33;87.23;101418.38;4818375;29;20256;-72
2023/08/13 01:18:11;;;;;;;9.97;7.13;;;;;;;16.42;86.81;101420.00;4824562;29;20236;-71
2023/08/13 01:20:41;;;;;;;15.57;7.07;;;;;;;16.54;85.61;101420.50;4825898;29;20667;-71
2023/08/13 01:23:08;;;;;;;6.77;6.10;;;;;;;16.52;85.35;101424.38;4825861;29;20191;-71
2023/08/13 01:25:35;;;;;;;7.13;5.97;;;;;;;16.44;85.64;101422.56;4826097;29;20199;-71
2023/08/13 01:28:14;;;;;;;6.87;6.47;;;;;;;16.35;85.82;101421.72;4825483;29;20227;-72
2023/08/13 01:30:46;;;;;;;6.83;6.17;;;;;;;16.29;86.01;101425.13;4826326;29;20187;-72
2023/08/13 01:33:18;;;;;;;9.20;7.03;;;;;;;16.31;86.05;101419.56;4825924;29;20210;-72
2023/08/13 01:35:45;;;;;;;6.70;6.30;;;;;;;16.25;86.12;101418.38;4824505;29;20199;-71
2023/08/13 01:38:13;;;;;;;7.87;6.43;;;;;;;16.26;85.86;101417.38;4826009;29;20226;-71
2023/08/13 01:40:39;;;;;;;10.20;5.47;;;;;;;16.38;84.45;101423.22;4825644;29;20622;-71
2023/08/13 01:43:06;;;;;;;13.43;5.80;;;;;;;16.57;83.38;101424.72;4825570;29;20195;-71
2023/08/13 01:45:32;;;;;;;16.40;5.73;;;;;;;16.74;81.38;101429.91;4824568;29;20624;-71
2023/08/13 01:47:58;;;;;;;5.30;4.90;;;;;;;17.03;79.22;101431.13;4825426;29;20641;-71
2023/08/13 01:50:26;;;;;;;8.30;5.90;;;;;;;16.98;79.38;101430.81;4824232;29;20212;-71
2023/08/13 01:52:52;;;;;;;6.43;5.97;;;;;;;16.86;79.96;101436.63;4825921;29;20203;-71
2023/08/13 01:55:19;;;;;;;11.20;5.40;;;;;;;16.76;80.65;101429.75;4824710;29;20214;-71
2023/08/13 01:57:45;;;;;;;20.73;5.17;;;;;;;16.68;81.04;101433.31;4825264;29;20226;-71
2023/08/13 02:00:12;;;;;;;7.40;5.53;;;;;;;16.63;81.47;101437.56;4824073;29;20214;-72
2023/08/13 02:02:39;;;;;;;6.20;5.60;;;;;;;16.57;81.52;101436.38;4824069;29;20587;-72
2023/08/13 02:05:07;;;;;;;5.77;5.33;;;;;;;16.47;81.86;101433.00;4825246;29;20199;-72
2023/08/13 02:07:34;;;;;;;6.53;6.13;;;;;;;16.44;82.27;101434.19;4825461;29;20207;-71
2023/08/13 02:10:00;;;;;;;5.40;5.00;;;;;;;16.42;82.71;101435.41;4825387;29;20236;-71
2023/08/13 02:12:27;;;;;;;5.57;5.27;;;;;;;16.32;83.08;101432.88;4825150;29;20191;-71
2023/08/13 02:14:53;;;;;;;5.67;5.37;;;;;;;16.37;82.80;101422.41;4823886;29;20199;-71
2023/08/13 02:17:21;;;;;;;5.97;4.60;;;;;;;16.26;83.35;101428.16;4824987;29;20577;-71
2023/08/13 02:19:47;;;;;;;4.43;4.27;;;;;;;16.22;83.12;101423.28;4823815;29;20207;-71
2023/08/13 02:22:16;;;;;;;6.00;5.30;;;;;;;16.15;83.43;101431.22;4824988;29;20672;-71
2023/08/13 02:24:42;;;;;;;12.23;5.60;;;;;;;16.11;83.70;101429.03;4824989;29;20195;-71
2023/08/13 02:27:09;;;;;;;12.80;5.67;;;;;;;16.09;83.82;101434.59;4824901;29;20215;-71
2023/08/13 02:29:35;;;;;;;5.50;5.13;;;;;;;16.04;83.98;101420.75;4824916;29;20208;-71
2023/08/13 02:32:03;;;;;;;7.30;5.13;;;;;;;16.02;84.02;101422.81;4824900;29;20191;-71
2023/08/13 02:34:33;;;;;;;5.30;4.90;;;;;;;15.97;84.22;101419.75;4823687;29;20199;-72
2023/08/13 02:37:00;;;;;;;5.33;5.07;;;;;;;15.90;84.86;101422.31;4823682;29;20650;-71
2023/08/13 02:39:27;;;;;;;10.40;5.10;;;;;;;15.89;85.23;101420.63;4825127;29;20263;-71
2023/08/13 02:41:53;;;;;;;5.50;5.20;;;;;;;15.83;85.08;101425.81;4823601;29;20199;-71
2023/08/13 02:44:19;;;;;;;8.43;4.43;;;;;;;15.88;85.42;101415.38;4823481;29;20203;-72
2023/08/13 02:46:47;;;;;;;4.83;4.73;;;;;;;15.82;85.18;101425.00;4823411;29;20216;-71
2023/08/13 02:49:13;;;;;;;5.10;4.77;;;;;;;15.80;85.34;101427.03;4823642;29;20208;-71
2023/08/13 02:51:40;;;;;;;4.53;4.43;;;;;;;15.77;85.35;101434.59;4824606;29;20214;-71
2023/08/13 02:54:06;;;;;;;15.90;5.77;;;;;;;15.71;85.71;101433.41;4823373;29;20619;-71
2023/08/13 02:56:32;;;;;;;4.40;4.10;;;;;;;15.67;86.00;101436.59;4824417;29;20195;-71
2023/08/13 02:58:59;;;;;;;6.87;4.30;;;;;;;15.66;85.79;101432.25;4825305;29;20537;-71
2023/08/13 03:01:25;;;;;;;10.13;4.63;;;;;;;15.63;85.78;101433.41;4823500;29;20207;-71
2023/08/13 03:03:52;;;;;;;23.30;4.87;;;;;;;15.61;85.73;101431.91;4823424;29;20694;-71
2023/08/13 03:06:21;;;;;;;4.43;4.23;;;;;;;15.59;85.91;101426.66;4824352;29;20195;-71
2023/08/13 03:08:48;;;;;;;9.80;5.47;;;;;;;15.53;86.28;101424.66;4823119;29;20616;-71
2023/08/13 03:11:14;;;;;;;5.97;4.23;;;;;;;15.53;86.15;101430.06;4824379;29;20265;-71
2023/08/13 03:13:41;;;;;;;5.70;4.00;;;;;;;15.48;86.32;101418.88;4823161;29;20254;-71
2023/08/13 03:16:08;;;;;;;5.97;4.50;;;;;;;15.47;86.17;101431.53;4823097;29;20289;-71
2023/08/13 03:18:35;;;;;;;5.33;4.63;;;;;;;15.47;86.29;101423.44;4823205;29;20230;-72
2023/08/13 03:21:04;;;;;;;4.00;3.90;;;;;;;15.46;86.25;101431.66;4823607;29;20571;-72
2023/08/13 03:23:32;;;;;;;4.10;4.00;;;;;;;15.43;86.51;101426.63;4823021;29;20199;-72
2023/08/13 03:26:00;;;;;;;4.47;4.17;;;;;;;15.40;86.39;101424.28;4823202;29;20206;-72
2023/08/13 03:28:28;;;;;;;7.33;4.43;;;;;;;15.41;86.10;101429.47;4822901;29;20215;-71
2023/08/13 03:31:02;;;;;;;5.77;4.83;;;;;;;15.38;86.37;101432.50;4824698;29;20195;-71
2023/08/13 03:33:40;;;;;;;5.47;4.33;;;;;;;15.36;86.86;101431.81;4823196;29;20209;-71
2023/08/13 03:36:07;;;;;;;5.87;4.60;;;;;;;15.37;86.17;101424.56;4822919;29;20200;-71
2023/08/13 03:38:34;;;;;;;6.80;3.90;;;;;;;15.38;86.25;101428.97;4822947;29;20227;-71
2023/08/13 03:41:02;;;;;;;9.80;4.80;;;;;;;15.39;86.28;101431.50;4822767;29;20203;-71
2023/08/13 03:43:28;;;;;;;8.87;5.07;;;;;;;15.36;86.45;101428.31;4824318;29;20598;-71
2023/08/13 03:45:54;;;;;;;4.93;4.30;;;;;;;15.34;86.55;101425.75;4824014;29;20568;-71
2023/08/13 03:48:21;;;;;;;4.23;3.83;;;;;;;15.36;86.33;101426.44;4823940;29;20576;-71
2023/08/13 03:50:48;;;;;;;12.17;4.37;;;;;;;15.49;85.46;101434.88;4822753;29;20220;-72
2023/08/13 03:53:15;;;;;;;4.83;4.53;;;;;;;15.60;85.19;101430.22;4824204;29;20568;-72
2023/08/13 03:55:42;;;;;;;4.97;4.47;;;;;;;15.57;85.19;101428.72;4822686;29;20195;-72
2023/08/13 03:58:08;;;;;;;6.50;4.90;;;;;;;15.54;84.80;101439.81;4824041;29;20654;-71
2023/08/13 04:00:35;;;;;;;5.13;4.73;;;;;;;15.49;85.21;101442.09;4822649;29;20210;-71
2023/08/13 04:03:03;;;;;;;6.50;4.97;;;;;;;15.49;85.38;101447.50;4824115;29;20196;-71
2023/08/13 04:05:49;;;;;;;7.90;7.07;;;;;;;15.52;85.15;101439.97;4822641;29;20195;-71
2023/08/13 04:08:15;;;;;;;5.20;5.00;;;;;;;15.68;84.58;101446.38;4823749;29;20310;-71
2023/08/13 04:10:42;;;;;;;15.70;6.50;;;;;;;15.80;83.08;101448.59;4823821;29;20188;-71
2023/08/13 04:13:08;;;;;;;19.30;4.83;;;;;;;15.90;82.68;101454.66;4824053;29;20199;-71
2023/08/13 04:15:35;;;;;;;27.37;5.90;;;;;;;15.92;81.92;101452.63;4822526;29;20675;-71
2023/08/13 04:18:02;;;;;;;7.27;5.00;;;;;;;15.92;82.19;101452.63;4823880;29;20323;-71
2023/08/13 04:20:29;;;;;;;6.60;4.83;;;;;;;15.94;82.07;101447.94;4827115;29;20233;-71
2023/08/13 04:22:55;;;;;;;8.47;5.03;;;;;;;15.94;82.46;101445.22;4825402;29;20199;-71
2023/08/13 04:25:22;;;;;;;11.63;5.03;;;;;;;15.91;82.25;101442.84;4825712;29;20204;-71
2023/08/13 04:27:48;;;;;;;5.90;5.37;;;;;;;15.97;82.03;101449.44;4825478;29;20305;-71
2023/08/13 04:30:15;;;;;;;9.20;5.67;;;;;;;15.93;81.94;101446.22;4825488;29;20199;-71
2023/08/13 04:32:52;;;;;;;6.03;5.23;;;;;;;15.91;82.30;101442.84;4825460;29;20255;-71
2023/08/13 04:35:18;;;;;;;9.03;5.47;;;;;;;15.91;82.78;101436.66;4825451;29;20615;-71
2023/08/13 04:37:45;;;;;;;5.37;4.97;;;;;;;15.89;82.47;101439.50;4826437;29;20706;-71
2023/08/13 04:40:12;;;;;;;13.13;5.30;;;;;;;15.82;82.73;101446.59;4825409;29;20250;-72
2023/08/13 04:42:41;;;;;;;6.53;4.83;;;;;;;15.79;83.11;101454.13;4825529;29;20203;-72
2023/08/13 04:45:08;;;;;;;5.93;5.53;;;;;;;15.73;83.45;101450.28;4825450;29;20204;-72
2023/08/13 04:47:35;;;;;;;5.47;4.97;;;;;;;15.73;83.70;101444.88;4825141;29;20221;-72
2023/08/13 04:50:01;;;;;;;11.60;5.70;;;;;;;15.74;83.81;101443.03;4825169;29;20756;-72
2023/08/13 04:52:28;;;;;;;6.53;5.90;;;;;;;15.68;84.25;101447.25;4825122;29;20203;-72
2023/08/13 04:54:55;;;;;;;7.63;5.77;;;;;;;15.65;84.46;101449.44;4825360;29;20269;-72
2023/08/13 04:57:22;;;;;;;9.93;5.10;;;;;;;15.58;85.07;101451.09;4824912;29;20219;-72
2023/08/13 04:59:50;;;;;;;6.10;4.73;;;;;;;15.54;84.79;101448.72;4825246;29;20203;-72
2023/08/13 05:02:16;;;;;;;4.97;4.77;;;;;;;15.56;84.93;101455.81;4826215;29;20257;-72
2023/08/13 05:04:43;;;;;;;7.53;4.53;;;;;;;15.56;85.09;101448.56;4826197;29;20244;-72
2023/08/13 05:07:09;;;;;;;4.73;4.30;;;;;;;15.58;85.27;101443.00;4825067;29;20211;-71
2023/08/13 05:09:36;;;;;;;5.03;4.30;;;;;;;15.57;84.99;101436.78;4824866;29;20677;-71
2023/08/13 05:12:02;;;;;;;6.07;4.37;;;;;;;15.53;85.32;101438.94;4824870;29;20282;-71
2023/08/13 05:14:29;;;;;;;4.27;4.07;;;;;;;15.51;85.45;101446.38;4824784;29;20204;-71
2023/08/13 05:16:56;;;;;;;4.93;4.63;;;;;;;15.51;85.55;101450.91;4824944;29;20722;-71
2023/08/13 05:19:23;;;;;;;6.40;5.27;;;;;;;15.53;85.65;101447.03;4825876;29;20219;-71
2023/08/13 05:21:52;;;;;;;4.83;4.53;;;;;;;15.57;85.84;101452.13;4824869;29;20660;-71
2023/08/13 05:24:18;;;;;;;7.60;4.43;;;;;;;15.58;85.99;101448.38;4824643;29;20206;-71
2023/08/13 05:26:46;;;;;;;4.13;3.90;;;;;;;15.61;86.00;101450.78;4824526;29;20286;-71
2023/08/13 05:29:15;;;;;;;13.30;4.63;;;;;;;15.68;86.06;101447.25;4823524;29;20191;-71
2023/08/13 05:31:42;;;;;;;5.50;5.07;;;;;;;15.70;86.32;101442.50;4826293;29;20236;-71
2023/08/13 05:34:08;;;;;;;5.20;4.90;;;;;;;15.75;86.57;101436.63;4824512;29;20195;-71
2023/08/13 05:36:34;;;;;;;5.83;4.93;;;;;;;15.83;86.33;101433.91;4825903;29;20547;-71
2023/08/13 05:39:01;;;;;;;4.93;4.43;;;;;;;15.83;86.45;101444.69;4825503;29;20228;-71
2023/08/13 05:41:28;;;;;;;4.63;4.33;;;;;;;15.82;86.49;101438.50;4825932;29;20279;-72
2023/08/13 05:43:54;;;;;;;4.53;4.43;;;;;;;15.84;86.82;101447.25;4825558;29;20252;-72
2023/08/13 05:46:21;;;;;;;4.33;4.20;;;;;;;15.86;87.01;101439.84;4824319;29;20573;-72
2023/08/13 05:48:47;;;;;;;3.90;3.77;;;;;;;15.91;86.91;101431.25;4824201;29;20219;-71
2023/08/13 05:51:14;;;;;;;4.77;4.57;;;;;;;15.93;87.33;101442.69;4824241;29;20759;-71
2023/08/13 05:53:40;;;;;;;6.63;4.07;;;;;;;15.93;87.11;101434.59;4825945;29;20244;-71
2023/08/13 05:56:07;;;;;;;4.20;3.90;;;;;;;15.95;87.12;101438.00;4825362;29;20672;-71
2023/08/13 05:58:33;;;;;;;4.23;4.03;;;;;;;16.01;87.22;101440.00;4825359;29;20271;-71
2023/08/13 06:01:00;;;;;;;4.83;3.77;;;;;;;16.03;87.17;101453.31;4825361;29;20203;-71
2023/08/13 06:03:27;;;;;;;10.03;3.90;;;;;;;16.05;87.16;101443.19;4825582;29;20672;-71
2023/08/13 06:05:55;;;;;;;3.73;3.57;;;;;;;16.08;87.39;101445.56;4825519;29;20596;-71
2023/08/13 06:08:22;;;;;;;7.43;3.90;;;;;;;16.12;87.32;101447.75;4825170;29;20211;-71
2023/08/13 06:10:48;;;;;;;4.90;3.73;;;;;;;16.15;87.59;101442.00;4825195;29;20199;-71
2023/08/13 06:13:14;;;;;;;3.90;3.70;;;;;;;16.17;86.89;101450.75;4825217;29;20595;-71
2023/08/13 06:15:41;;;;;;;6.60;4.20;;;;;;;16.22;87.08;101445.69;4825372;29;20195;-71
2023/08/13 06:18:07;;;;;;;4.20;3.90;;;;;;;16.22;86.62;101455.66;4825097;29;20747;-71
2023/08/13 06:20:34;;;;;;;3.60;3.40;;;;;;;16.25;87.14;101445.34;4825025;29;20206;-71
2023/08/13 06:23:00;;;;;;;3.93;3.83;;;;;;;16.28;86.76;101453.13;4825286;29;20192;-71
2023/08/13 06:25:27;;;;;;;4.10;3.63;;;;;;;16.33;86.20;101455.31;4825232;29;20192;-71
2023/08/13 06:27:53;;;;;;;6.03;4.70;;;;;;;16.36;86.61;101458.50;4824891;29;20203;-71
2023/08/13 06:30:20;;;;;;;4.10;3.83;;;;;;;16.42;86.35;101452.41;4824919;29;20752;-71
2023/08/13 06:32:46;;;;;;;6.97;4.07;;;;;;;16.51;86.28;101452.41;4825164;29;20232;-72
2023/08/13 06:35:15;;;;;;;4.40;4.10;;;;;;;16.62;86.22;101452.91;4824892;29;20217;-72
2023/08/13 06:37:41;;;;;;;9.83;4.43;;;;;;;16.71;86.63;101451.88;4824674;29;20207;-72
2023/08/13 06:40:26;;;;;;;7.33;4.10;;;;;;;16.86;86.09;101454.69;4824592;29;20222;-72
2023/08/13 06:42:53;;;;;;;8.27;4.63;;;;;;;16.96;85.62;101462.59;4824978;29;20621;-72
2023/08/13 06:45:23;;;;;;;3.70;3.47;;;;;;;17.04;85.42;101462.53;4824713;29;20635;-72
2023/08/13 06:47:49;;;;;;;6.37;4.87;;;;;;;17.09;85.13;101465.56;4824674;29;20211;-72
2023/08/13 06:50:16;;;;;;;4.07;3.97;;;;;;;17.15;84.96;101472.94;4824625;29;20230;-72
2023/08/13 06:52:42;;;;;;;4.07;3.70;;;;;;;17.18;84.95;101468.06;4824864;29;20207;-72
2023/08/13 06:55:09;;;;;;;4.00;3.63;;;;;;;17.22;84.82;101465.84;4825128;29;20679;-72
2023/08/13 06:57:35;;;;;;;5.20;4.07;;;;;;;17.28;84.35;101470.53;4824761;29;20219;-71
2023/08/13 07:00:03;;;;;;;7.93;3.63;;;;;;;17.32;83.76;101472.69;4824666;29;20267;-72
2023/08/13 07:02:29;;;;;;;3.80;3.60;;;;;;;17.39;83.38;101472.00;4824605;29;20240;-72
2023/08/13 07:04:55;;;;;;;4.13;3.30;;;;;;;17.42;82.97;101474.34;4825011;29;20196;-72
2023/08/13 07:07:22;;;;;;;5.27;2.93;;;;;;;17.58;81.40;101466.16;4824602;29;20207;-71
2023/08/13 07:09:49;;;;;;;3.80;3.50;;;;;;;17.62;80.54;101467.47;4824667;29;20256;-71
2023/08/13 07:12:15;;;;;;;3.33;3.17;;;;;;;17.66;80.86;101468.81;4824619;29;20261;-71
2023/08/13 07:14:42;;;;;;;4.00;3.60;;;;;;;17.73;80.88;101462.53;4824648;29;20332;-71
2023/08/13 07:17:08;;;;;;;5.73;3.00;;;;;;;17.80;80.66;101463.47;4824487;29;20638;-71
2023/08/13 07:19:35;;;;;;;6.43;3.93;;;;;;;17.94;79.66;101461.84;4824498;29;20248;-71
2023/08/13 07:22:02;;;;;;;3.37;3.17;;;;;;;18.04;79.58;101454.31;4824204;29;20215;-71
2023/08/13 07:24:29;;;;;;;12.13;3.50;;;;;;;18.15;77.65;101453.88;4824240;29;20196;-71
2023/08/13 07:26:55;;;;;;;5.97;2.40;;;;;;;18.27;76.06;101459.69;4824424;29;20759;-71
2023/08/13 07:29:21;;;;;;;9.17;3.37;;;;;;;18.32;76.49;101459.13;4824461;29;20199;-72
2023/08/13 07:31:48;;;;;;;3.17;2.80;;;;;;;18.25;77.05;101457.16;4824179;29;20286;-72
2023/08/13 07:34:15;;;;;;;5.00;3.27;;;;;;;18.24;76.96;101458.19;4824412;29;20655;-71
2023/08/13 07:36:41;;;;;;;2.70;2.53;;;;;;;18.29;76.89;101456.81;4824559;29;20282;-71
2023/08/13 07:39:09;;;;;;;7.87;3.20;;;;;;;18.37;76.38;101462.97;4824122;29;20305;-72
2023/08/13 07:41:36;;;;;;;9.70;3.90;;;;;;;18.39;76.10;101454.66;4824371;29;20191;-72
2023/08/13 07:44:02;;;;;;;3.13;3.03;;;;;;;18.46;76.19;101455.63;4824318;29;20184;-71
2023/08/13 07:46:29;;;;;;;7.47;2.70;;;;;;;18.58;75.77;101459.56;4824493;29;20200;-71
2023/08/13 07:48:55;;;;;;;2.87;2.73;;;;;;;18.65;75.91;101464.06;4823951;29;20215;-71
2023/08/13 07:51:22;;;;;;;3.90;2.30;;;;;;;18.77;75.52;101458.16;4824277;29;20192;-72
2023/08/13 07:53:49;;;;;;;2.93;2.73;;;;;;;18.78;74.99;101460.69;4826639;29;20200;-72
2023/08/13 07:56:15;;;;;;;5.10;2.63;;;;;;;18.87;73.99;101456.88;4827297;29;20200;-72
2023/08/13 07:58:42;;;;;;;2.07;1.97;;;;;;;18.86;74.34;101460.59;4827122;29;20227;-72
2023/08/13 08:01:08;;;;;;;2.83;2.63;;;;;;;19.06;74.00;101456.28;4827456;29;20264;-72
2023/08/13 08:03:35;;;;;;;5.13;2.47;;;;;;;19.07;73.05;101465.25;4827664;29;20195;-72
2023/08/13 08:06:01;;;;;;;6.03;2.10;;;;;;;19.27;71.72;101454.63;4827138;29;20197;-72
2023/08/13 08:08:28;;;;;;;3.70;2.70;;;;;;;19.26;72.10;101453.81;4827267;29;20215;-71
2023/08/13 08:10:54;;;;;;;4.07;2.80;;;;;;;19.25;72.50;101456.72;4827314;29;20198;-72
2023/08/13 08:13:21;;;;;;;4.63;3.43;;;;;;;19.36;72.85;101450.78;4826988;29;20203;-72
2023/08/13 08:15:47;;;;;;;3.63;3.30;;;;;;;19.52;69.46;101451.41;4826965;29;20204;-72
2023/08/13 08:18:14;;;;;;;5.73;2.77;;;;;;;19.49;70.57;101454.53;4826995;29;20215;-71
2023/08/13 08:20:41;;;;;;;4.33;2.33;;;;;;;19.48;70.51;101450.13;4827104;29;20298;-72
2023/08/13 08:23:08;;;;;;;2.27;2.13;;;;;;;19.47;71.12;101466.59;4825560;29;20259;-72
2023/08/13 08:25:35;;;;;;;2.47;2.27;;;;;;;19.55;70.31;101453.78;4826831;29;20200;-72
2023/08/13 08:28:01;;;;;;;2.53;2.40;;;;;;;19.64;71.07;101456.34;4826703;29;20216;-71
2023/08/13 08:30:28;;;;;;;2.20;2.03;;;;;;;19.57;71.21;101448.97;4826692;29;20228;-71
2023/08/13 08:32:54;;;;;;;5.10;2.17;;;;;;;19.59;71.07;101452.34;4826943;29;20207;-72
2023/08/13 08:35:20;;;;;;;3.13;2.23;;;;;;;19.70;71.11;101447.41;4826858;29;20280;-72
2023/08/13 08:37:47;;;;;;;3.70;2.40;;;;;;;19.69;69.88;101443.88;4826261;29;20211;-72
2023/08/13 08:40:14;;;;;;;2.10;2.10;;;;;;;19.66;70.63;101446.13;4826399;29;20243;-71
2023/08/13 08:42:42;;;;;;;3.27;2.63;;;;;;;19.80;70.14;101443.38;4826537;29;20195;-72
2023/08/13 08:45:10;;;;;;;8.57;2.53;;;;;;;19.76;70.18;101446.66;4826449;29;20183;-71
2023/08/13 08:47:42;;;;;;;5.03;2.20;;;;;;;19.81;70.52;101441.50;4826364;29;20222;-71
2023/08/13 08:50:11;;;;;;;3.03;2.23;;;;;;;19.94;68.64;101437.00;4827209;29;20232;-72
2023/08/13 08:52:38;;;;;;;3.33;2.17;;;;;;;19.83;69.28;101437.53;4826368;29;20195;-72
2023/08/13 08:55:05;;;;;;;2.33;2.23;;;;;;;19.95;69.25;101438.69;4826316;29;20199;-72
2023/08/13 08:57:32;;;;;;;2.47;2.27;;;;;;;19.92;69.51;101438.25;4826242;29;20215;-71
2023/08/13 08:59:59;;;;;;;1.93;1.83;;;;;;;19.99;68.69;101431.84;4826676;29;20211;-71
2023/08/13 09:02:26;;;;;;;5.10;2.10;;;;;;;20.04;69.49;101433.97;4826245;29;20195;-71
2023/08/13 09:04:53;;;;;;;4.83;2.37;;;;;;;19.99;69.48;101434.56;4825996;29;20210;-71
2023/08/13 09:07:27;;;;;;;3.50;2.80;;;;;;;20.12;69.02;101436.53;4826056;29;20256;-71
2023/08/13 09:09:54;;;;;;;5.67;2.43;;;;;;;20.10;69.16;101430.47;4826672;29;20648;-71
2023/08/13 09:12:20;;;;;;;7.23;2.50;;;;;;;20.17;69.83;101431.38;4826605;29;20199;-71
2023/08/13 09:14:47;;;;;;;3.53;2.17;;;;;;;20.13;68.21;101427.38;4826285;29;20191;-71
2023/08/13 09:17:13;;;;;;;2.70;2.10;;;;;;;20.17;68.94;101427.81;4826464;29;20267;-71
2023/08/13 09:19:40;;;;;;;3.53;1.83;;;;;;;20.25;68.97;101427.66;4825876;29;20221;-71
2023/08/13 09:22:07;;;;;;;4.73;2.20;;;;;;;20.31;68.81;101426.91;4826421;29;20194;-71
2023/08/13 09:24:36;;;;;;;2.53;2.13;;;;;;;20.42;69.59;101438.06;4826065;29;20202;-71
2023/08/13 09:27:04;;;;;;;1.87;1.77;;;;;;;20.52;65.58;101424.97;4826211;29;20226;-71
2023/08/13 09:29:32;;;;;;;1.70;1.60;;;;;;;20.69;66.06;101424.63;4826344;29;20341;-71
2023/08/13 09:32:00;;;;;;;2.13;2.03;;;;;;;20.79;66.96;101415.06;4825690;29;20680;-71
2023/08/13 09:34:28;;;;;;;8.77;2.90;;;;;;;20.94;64.19;101412.22;4825672;29;20247;-71
2023/08/13 09:36:56;;;;;;;1.80;1.80;;;;;;;20.92;64.91;101411.56;4825552;29;20211;-71
2023/08/13 09:39:23;;;;;;;2.60;2.40;;;;;;;20.82;64.81;101417.41;4825672;29;20589;-71
2023/08/13 09:41:51;;;;;;;10.53;2.53;;;;;;;20.89;64.76;101410.09;4826190;29;20183;-71
2023/08/13 09:44:20;;;;;;;2.77;2.50;;;;;;;20.79;66.57;101415.06;4825609;29;20195;-71
2023/08/13 09:46:51;;;;;;;3.80;1.97;;;;;;;20.85;65.82;101413.44;4825547;29;20282;-71
2023/08/13 09:49:18;;;;;;;2.30;2.13;;;;;;;20.85;66.02;101406.13;4826082;29;20240;-71
2023/08/13 09:51:48;;;;;;;2.07;2.07;;;;;;;20.93;65.93;101403.22;4826013;29;20547;-71
2023/08/13 09:54:22;;;;;;;3.13;2.17;;;;;;;21.09;64.83;101401.19;4825774;29;20180;-71
2023/08/13 09:56:57;;;;;;;1.83;1.73;;;;;;;21.02;65.26;101394.88;4825846;29;20209;-71
2023/08/13 09:59:25;;;;;;;3.10;2.23;;;;;;;21.01;64.91;101391.31;4825837;29;20203;-72
2023/08/13 10:01:52;;;;;;;1.77;1.77;;;;;;;21.10;65.19;101389.25;4825360;29;20671;-72
2023/08/13 10:04:19;;;;;;;12.33;2.23;;;;;;;21.20;63.61;101385.16;4825500;29;20199;-72
2023/08/13 10:06:47;;;;;;;2.10;2.00;;;;;;;21.15;64.50;101387.66;4825708;29;20195;-71
2023/08/13 10:09:13;;;;;;;2.53;2.33;;;;;;;21.10;62.69;101378.38;4825467;29;20202;-71
2023/08/13 10:11:39;;;;;;;2.53;2.33;;;;;;;21.15;62.40;101387.66;4825197;29;20191;-72
2023/08/13 10:14:06;;;;;;;2.87;2.70;;;;;;;21.22;65.01;101379.50;4825434;29;20191;-72
2023/08/13 10:16:33;;;;;;;3.00;2.23;;;;;;;21.28;64.05;101378.69;4824710;29;20192;-71
2023/08/13 10:19:00;;;;;;;4.33;2.47;;;;;;;21.35;64.54;101379.53;4824987;29;20211;-71
2023/08/13 10:21:35;;;;;;;4.63;2.67;;;;;;;21.45;63.18;101382.69;4825031;29;20195;-72
2023/08/13 10:24:03;;;;;;;3.30;2.10;;;;;;;21.56;58.55;101384.78;4823727;29;20206;-72
2023/08/13 10:26:29;;;;;;;2.83;2.10;;;;;;;21.72;60.23;101372.69;4824968;29;20196;-72
2023/08/13 10:28:56;;;;;;;2.03;2.00;;;;;;;21.65;62.02;101372.66;4824876;29;20211;-72
2023/08/13 10:31:23;;;;;;;2.33;2.10;;;;;;;21.64;62.40;101372.91;4824899;29;20206;-72
2023/08/13 10:34:00;;;;;;;2.63;2.42;;;;;;;21.63;63.96;101368.50;4825337;29;20195;-72
2023/08/13 10:36:52;;;;;;;2.00;1.93;;;;;;;21.82;61.30;101365.75;4825168;29;20517;-72
2023/08/13 10:39:35;;;;;;;2.63;2.63;;;;;;;21.93;60.53;101364.34;4825133;29;20723;-71
2023/08/13 10:42:03;;;;;;;5.17;1.90;;;;;;;21.99;61.05;101360.75;4824997;29;20547;-71
2023/08/13 10:44:40;;;;;;;2.75;2.50;;;;;;;22.09;59.46;101363.06;4824783;29;20676;-72
2023/08/13 10:47:06;;;;;;;2.43;2.30;;;;;;;22.11;59.29;101350.88;4824945;29;20634;-71
2023/08/13 10:49:35;;;;;;;2.77;2.57;;;;;;;22.17;57.70;101349.22;4824944;29;20183;-72
2023/08/13 10:52:02;;;;;;;2.17;2.13;;;;;;;22.19;56.20;101355.31;4824628;29;20199;-71
2023/08/13 10:54:29;;;;;;;2.28;2.17;;;;;;;22.19;57.08;101358.84;4824856;29;20203;-72
2023/08/13 10:56:59;;;;;;;2.15;1.92;;;;;;;22.18;58.43;101354.47;4824520;29;20215;-71
2023/08/13 10:59:39;;;;;;;4.47;2.40;;;;;;;22.30;58.40;101344.59;4824496;29;20215;-71
2023/08/13 11:02:15;;;;;;;3.13;2.33;;;;;;;22.15;58.36;101351.31;4825021;29;20551;-71
2023/08/13 11:04:46;;;;;;;2.63;2.50;;;;;;;22.08;59.42;101351.31;4824499;29;20194;-72
2023/08/13 11:07:14;;;;;;;4.97;2.58;;;;;;;22.14;60.36;101352.38;4824346;29;20234;-72
2023/08/13 11:09:44;;;;;;;6.07;2.70;;;;;;;22.21;59.57;101350.47;4824277;29;20713;-73
2023/08/13 11:12:11;;;;;;;2.10;2.00;;;;;;;22.12;58.85;101355.28;4824615;29;20191;-72
2023/08/13 11:14:40;;;;;;;4.32;2.83;;;;;;;22.13;60.49;101347.97;4824625;29;20281;-72
2023/08/13 11:17:07;;;;;;;2.55;2.45;;;;;;;22.10;59.15;101348.41;4824506;29;20632;-72
2023/08/13 11:19:34;;;;;;;2.97;2.33;;;;;;;22.13;59.51;101343.34;4824503;29;20215;-72
2023/08/13 11:22:01;;;;;;;4.20;2.67;;;;;;;22.14;59.84;101342.31;4824795;29;20559;-72
2023/08/13 11:24:32;;;;;;;3.70;2.90;;;;;;;22.18;60.67;101343.56;4824530;29;20580;-72
2023/08/13 11:26:59;;;;;;;2.33;2.17;;;;;;;22.22;58.78;101346.69;4825709;29;20220;-72